sensor_id;sensor_type;location;lat;lon;timestamp;pressure;altitude;pressure_sealevel;temperature;humidity
4167;BME280;2097;51.104;7.150;2023-02-13T00:00:28;100900.63;;;7.20;100.00
4167;BME280;2097;51.104;7.150;2023-02-13T00:02:55;100893.72;;;7.19;100.00
4167;BME280;2097;51.104;7.150;2023-02-13T00:05:22;100661.28;;;5.80;100.00
4167;BME280;2097;51.104;7.150;2023-02-13T00:07:48;100889.47;;;7.13;100.00
4167;BME280;2097;51.104;7.150;2023-02-13T00:10:16;100773.25;;;6.40;100.00
4167;BME280;2097;51.104;7.150;2023-02-13T00:12:44;100892.09;;;7.12;100.00
4167;BME280;2097;51.104;7.150;2023-02-13T00:15:11;100880.94;;;7.08;100.00
4167;BME280;2097;51.104;7.150;2023-02-13T00:17:37;100808.28;;;6.60;100.00
4167;BME280;2097;51.104;7.150;2023-02-13T00:20:05;100677.47;;;5.91;100.00
4167;BME280;2097;51.104;7.150;2023-02-13T00:22:35;100877.50;;;7.08;100.00
4167;BME280;2097;51.104;7.150;2023-02-13T00:25:02;100883.53;;;7.07;100.00
4167;BME280;2097;51.104;7.150;2023-02-13T00:27:29;100885.25;;;7.05;100.00
4167;BME280;2097;51.104;7.150;2023-02-13T00:29:57;100785.22;;;6.47;100.00
4167;BME280;2097;51.104;7.150;2023-02-13T00:32:24;100887.00;;;7.03;100.00
4167;BME280;2097;51.104;7.150;2023-02-13T00:34:50;100881.88;;;7.00;100.00
4167;BME280;2097;51.104;7.150;2023-02-13T00:37:17;100883.63;;;6.99;100.00
4167;BME280;2097;51.104;7.150;2023-02-13T00:39:44;100888.78;;;6.98;100.00
4167;BME280;2097;51.104;7.150;2023-02-13T00:42:11;100879.28;;;7.00;100.00
4167;BME280;2097;51.104;7.150;2023-02-13T00:44:38;100793.88;;;6.40;100.00
4167;BME280;2097;51.104;7.150;2023-02-13T00:47:06;100815.25;;;6.55;100.00
4167;BME280;2097;51.104;7.150;2023-02-13T00:49:32;100692.97;;;5.87;100.00
4167;BME280;2097;51.104;7.150;2023-02-13T00:51:59;100868.25;;;6.89;100.00
4167;BME280;2097;51.104;7.150;2023-02-13T00:54:26;100869.09;;;6.86;100.00
4167;BME280;2097;51.104;7.150;2023-02-13T00:56:53;100813.56;;;6.51;100.00
4167;BME280;2097;51.104;7.150;2023-02-13T00:59:20;100786.19;;;6.35;100.00
4167;BME280;2097;51.104;7.150;2023-02-13T01:01:46;100862.28;;;6.81;100.00
4167;BME280;2097;51.104;7.150;2023-02-13T01:04:15;100863.16;;;6.80;100.00
4167;BME280;2097;51.104;7.150;2023-02-13T01:06:41;100861.41;;;6.82;100.00
4167;BME280;2097;51.104;7.150;2023-02-13T01:09:08;100862.28;;;6.81;100.00
4167;BME280;2097;51.104;7.150;2023-02-13T01:11:35;100870.91;;;6.80;100.00
4167;BME280;2097;51.104;7.150;2023-02-13T01:14:02;100836.66;;;6.60;100.00
4167;BME280;2097;51.104;7.150;2023-02-13T01:16:29;100772.53;;;6.24;100.00
4167;BME280;2097;51.104;7.150;2023-02-13T01:18:56;100870.06;;;6.78;100.00
4167;BME280;2097;51.104;7.150;2023-02-13T01:21:24;100865.75;;;6.77;100.00
4167;BME280;2097;51.104;7.150;2023-02-13T01:23:51;100862.31;;;6.76;100.00
4167;BME280;2097;51.104;7.150;2023-02-13T01:26:19;100854.56;;;6.76;100.00
4167;BME280;2097;51.104;7.150;2023-02-13T01:28:46;100865.75;;;6.75;100.00
4167;BME280;2097;51.104;7.150;2023-02-13T01:31:13;100755.50;;;6.08;100.00
4167;BME280;2097;51.104;7.150;2023-02-13T01:33:39;100848.66;;;6.69;100.00
4167;BME280;2097;51.104;7.150;2023-02-13T01:36:08;100850.38;;;6.65;100.00
4167;BME280;2097;51.104;7.150;2023-02-13T01:38:37;100783.81;;;6.13;100.00
4167;BME280;2097;51.104;7.150;2023-02-13T01:41:04;100857.31;;;6.60;100.00
4167;BME280;2097;51.104;7.150;2023-02-13T01:43:49;100857.34;;;6.59;100.00
4167;BME280;2097;51.104;7.150;2023-02-13T01:46:21;100861.63;;;6.58;100.00
4167;BME280;2097;51.104;7.150;2023-02-13T01:48:50;100845.34;;;6.53;100.00
4167;BME280;2097;51.104;7.150;2023-02-13T01:51:22;100793.19;;;6.21;100.00
4167;BME280;2097;51.104;7.150;2023-02-13T01:53:56;100860.75;;;6.59;100.00
4167;BME280;2097;51.104;7.150;2023-02-13T01:56:27;100850.44;;;6.61;100.00
4167;BME280;2097;51.104;7.150;2023-02-13T01:58:56;100847.00;;;6.62;100.00
4167;BME280;2097;51.104;7.150;2023-02-13T02:01:25;100762.38;;;6.08;100.00
4167;BME280;2097;51.104;7.150;2023-02-13T02:03:54;100850.44;;;6.61;100.00
4167;BME280;2097;51.104;7.150;2023-02-13T02:06:26;100855.59;;;6.61;100.00
4167;BME280;2097;51.104;7.150;2023-02-13T02:08:58;100851.31;;;6.60;100.00
4167;BME280;2097;51.104;7.150;2023-02-13T02:11:41;100821.38;;;6.42;100.00
4167;BME280;2097;51.104;7.150;2023-02-13T02:14:10;100853.03;;;6.61;100.00
4167;BME280;2097;51.104;7.150;2023-02-13T02:16:37;100853.03;;;6.58;100.00
4167;BME280;2097;51.104;7.150;2023-02-13T02:19:09;100856.47;;;6.58;100.00
4167;BME280;2097;51.104;7.150;2023-02-13T02:28:09;100849.59;;;6.57;100.00
4167;BME280;2097;51.104;7.150;2023-02-13T02:33:46;100734.16;;;5.93;100.00
4167;BME280;2097;51.104;7.150;2023-02-13T02:36:24;100847.00;;;6.57;100.00
4167;BME280;2097;51.104;7.150;2023-02-13T02:39:03;100853.91;;;6.57;100.00
4167;BME280;2097;51.104;7.150;2023-02-13T02:41:40;100758.94;;;6.07;100.00
4167;BME280;2097;51.104;7.150;2023-02-13T02:44:30;100722.22;;;5.83;100.00
4167;BME280;2097;51.104;7.150;2023-02-13T02:47:07;100849.59;;;6.57;100.00
4167;BME280;2097;51.104;7.150;2023-02-13T02:50:00;100806.78;;;6.38;100.00
4167;BME280;2097;51.104;7.150;2023-02-13T02:52:39;100841.84;;;6.57;100.00
4167;BME280;2097;51.104;7.150;2023-02-13T02:55:16;100838.47;;;6.55;100.00
4167;BME280;2097;51.104;7.150;2023-02-13T02:57:46;100847.88;;;6.56;100.00
4167;BME280;2097;51.104;7.150;2023-02-13T03:00:34;100840.16;;;6.55;100.00
4167;BME280;2097;51.104;7.150;2023-02-13T03:03:22;100838.47;;;6.54;100.00
4167;BME280;2097;51.104;7.150;2023-02-13T03:06:11;100837.59;;;6.55;100.00
4167;BME280;2097;51.104;7.150;2023-02-13T03:08:43;100841.03;;;6.54;100.00
4167;BME280;2097;51.104;7.150;2023-02-13T03:11:28;100846.22;;;6.52;100.00
4167;BME280;2097;51.104;7.150;2023-02-13T03:14:15;100844.50;;;6.54;100.00
4167;BME280;2097;51.104;7.150;2023-02-13T03:16:45;100770.09;;;6.08;100.00
4167;BME280;2097;51.104;7.150;2023-02-13T03:19:37;100851.34;;;6.55;100.00
4167;BME280;2097;51.104;7.150;2023-02-13T03:22:33;100850.47;;;6.56;100.00
4167;BME280;2097;51.104;7.150;2023-02-13T03:25:10;100842.72;;;6.56;100.00
4167;BME280;2097;51.104;7.150;2023-02-13T03:27:43;100804.28;;;6.29;100.00
4167;BME280;2097;51.104;7.150;2023-02-13T03:30:34;100849.66;;;6.54;100.00
4167;BME280;2097;51.104;7.150;2023-02-13T03:33:23;100801.78;;;6.22;100.00
4167;BME280;2097;51.104;7.150;2023-02-13T03:36:01;100853.03;;;6.56;100.00
4167;BME280;2097;51.104;7.150;2023-02-13T03:38:55;100850.47;;;6.56;100.00
4167;BME280;2097;51.104;7.150;2023-02-13T03:41:27;100848.75;;;6.57;100.00
4167;BME280;2097;51.104;7.150;2023-02-13T03:44:03;100808.56;;;6.33;100.00
4167;BME280;2097;51.104;7.150;2023-02-13T03:46:35;100842.78;;;6.53;100.00
4167;BME280;2097;51.104;7.150;2023-02-13T03:49:05;100844.50;;;6.51;100.00
4167;BME280;2097;51.104;7.150;2023-02-13T03:51:53;100736.78;;;5.87;100.00
4167;BME280;2097;51.104;7.150;2023-02-13T03:54:26;100849.66;;;6.53;100.00
4167;BME280;2097;51.104;7.150;2023-02-13T03:57:14;100835.03;;;6.53;100.00
4167;BME280;2097;51.104;7.150;2023-02-13T04:00:02;100843.63;;;6.54;100.00
4167;BME280;2097;51.104;7.150;2023-02-13T04:02:33;100847.06;;;6.54;100.00
4167;BME280;2097;51.104;7.150;2023-02-13T04:05:07;100765.78;;;6.11;100.00
4167;BME280;2097;51.104;7.150;2023-02-13T04:07:36;100837.63;;;6.53;100.00
4167;BME280;2097;51.104;7.150;2023-02-13T04:10:06;100737.63;;;5.89;100.00
4167;BME280;2097;51.104;7.150;2023-02-13T04:12:38;100841.03;;;6.54;100.00
4167;BME280;2097;51.104;7.150;2023-02-13T04:15:11;100788.06;;;6.18;100.00
4167;BME280;2097;51.104;7.150;2023-02-13T04:17:42;100779.59;;;6.04;100.00
4167;BME280;2097;51.104;7.150;2023-02-13T04:20:11;100846.22;;;6.52;100.00
4167;BME280;2097;51.104;7.150;2023-02-13T04:22:42;100853.09;;;6.53;100.00
4167;BME280;2097;51.104;7.150;2023-02-13T04:25:12;100858.25;;;6.52;100.00
4167;BME280;2097;51.104;7.150;2023-02-13T04:27:39;100735.13;;;5.78;100.00
4167;BME280;2097;51.104;7.150;2023-02-13T04:30:07;100750.47;;;5.90;100.00
4167;BME280;2097;51.104;7.150;2023-02-13T04:32:34;100756.50;;;5.91;100.00
4167;BME280;2097;51.104;7.150;2023-02-13T04:35:02;100845.38;;;6.50;100.00
4167;BME280;2097;51.104;7.150;2023-02-13T04:37:28;100735.09;;;5.83;100.00
4167;BME280;2097;51.104;7.150;2023-02-13T04:39:55;100774.44;;;6.01;100.00
4167;BME280;2097;51.104;7.150;2023-02-13T04:42:23;100847.97;;;6.47;100.00
4167;BME280;2097;51.104;7.150;2023-02-13T04:44:51;100810.34;;;6.22;100.00
4167;BME280;2097;51.104;7.150;2023-02-13T04:47:18;100854.00;;;6.45;100.00
4167;BME280;2097;51.104;7.150;2023-02-13T04:49:44;100848.00;;;6.44;100.00
4167;BME280;2097;51.104;7.150;2023-02-13T04:52:12;100783.03;;;6.03;100.00
4167;BME280;2097;51.104;7.150;2023-02-13T04:54:41;100837.72;;;6.40;100.00
4167;BME280;2097;51.104;7.150;2023-02-13T04:57:09;100848.06;;;6.38;100.00
4167;BME280;2097;51.104;7.150;2023-02-13T04:59:37;100832.59;;;6.35;100.00
4167;BME280;2097;51.104;7.150;2023-02-13T05:02:03;100842.09;;;6.30;100.00
4167;BME280;2097;51.104;7.150;2023-02-13T05:04:30;100836.97;;;6.26;100.00
4167;BME280;2097;51.104;7.150;2023-02-13T05:06:57;100838.72;;;6.22;100.00
4167;BME280;2097;51.104;7.150;2023-02-13T05:09:24;100775.50;;;5.79;100.00
4167;BME280;2097;51.104;7.150;2023-02-13T05:11:51;100820.84;;;5.98;100.00
4167;BME280;2097;51.104;7.150;2023-02-13T05:14:18;100846.56;;;6.10;100.00
4167;BME280;2097;51.104;7.150;2023-02-13T05:16:46;100831.97;;;6.05;100.00
4167;BME280;2097;51.104;7.150;2023-02-13T05:19:14;100840.59;;;5.99;100.00
4167;BME280;2097;51.104;7.150;2023-02-13T05:21:41;100832.91;;;5.93;100.00
4167;BME280;2097;51.104;7.150;2023-02-13T05:24:25;100832.94;;;5.87;100.00
4167;BME280;2097;51.104;7.150;2023-02-13T05:26:52;100738.88;;;5.27;100.00
4167;BME280;2097;51.104;7.150;2023-02-13T05:29:19;100834.75;;;5.79;100.00
4167;BME280;2097;51.104;7.150;2023-02-13T05:31:49;100832.16;;;5.76;100.00
4167;BME280;2097;51.104;7.150;2023-02-13T05:34:17;100732.97;;;5.10;100.00
4167;BME280;2097;51.104;7.150;2023-02-13T05:36:44;100842.44;;;5.76;100.00
4167;BME280;2097;51.104;7.150;2023-02-13T05:39:14;100843.31;;;5.75;100.00
4167;BME280;2097;51.104;7.150;2023-02-13T05:41:41;100824.44;;;5.73;100.00
4167;BME280;2097;51.104;7.150;2023-02-13T05:44:08;100836.44;;;5.74;100.00
4167;BME280;2097;51.104;7.150;2023-02-13T05:46:36;100839.03;;;5.71;100.00
4167;BME280;2097;51.104;7.150;2023-02-13T05:49:05;100757.81;;;5.12;100.00
4167;BME280;2097;51.104;7.150;2023-02-13T05:51:32;100837.38;;;5.58;100.00
4167;BME280;2097;51.104;7.150;2023-02-13T05:53:59;100839.97;;;5.53;100.00
4167;BME280;2097;51.104;7.150;2023-02-13T05:56:27;100843.47;;;5.44;100.00
4167;BME280;2097;51.104;7.150;2023-02-13T05:58:54;100842.66;;;5.38;100.00
4167;BME280;2097;51.104;7.150;2023-02-13T06:01:22;100829.81;;;5.23;100.00
4167;BME280;2097;51.104;7.150;2023-02-13T06:03:49;100845.25;;;5.26;100.00
4167;BME280;2097;51.104;7.150;2023-02-13T06:06:18;100843.56;;;5.22;100.00
4167;BME280;2097;51.104;7.150;2023-02-13T06:08:45;100779.38;;;4.81;100.00
4167;BME280;2097;51.104;7.150;2023-02-13T06:11:12;100748.56;;;4.63;100.00
4167;BME280;2097;51.104;7.150;2023-02-13T06:13:39;100841.03;;;5.10;100.00
4167;BME280;2097;51.104;7.150;2023-02-13T06:16:06;100830.75;;;5.05;100.00
4167;BME280;2097;51.104;7.150;2023-02-13T06:18:33;100839.34;;;5.03;100.00
4167;BME280;2097;51.104;7.150;2023-02-13T06:21:00;100769.13;;;4.57;100.00
4167;BME280;2097;51.104;7.150;2023-02-13T06:23:29;100842.75;;;4.97;100.00
4167;BME280;2097;51.104;7.150;2023-02-13T06:26:00;100832.47;;;4.94;100.00
4167;BME280;2097;51.104;7.150;2023-02-13T06:28:27;100838.50;;;4.92;100.00
4167;BME280;2097;51.104;7.150;2023-02-13T06:30:53;100835.94;;;4.87;100.00
4167;BME280;2097;51.104;7.150;2023-02-13T06:33:20;100846.25;;;4.81;100.00
4167;BME280;2097;51.104;7.150;2023-02-13T06:35:47;100633.13;;;3.45;100.00
4167;BME280;2097;51.104;7.150;2023-02-13T06:38:14;100848.84;;;4.71;100.00
4167;BME280;2097;51.104;7.150;2023-02-13T06:40:44;100831.72;;;4.64;100.00
4167;BME280;2097;51.104;7.150;2023-02-13T06:43:12;100844.53;;;4.62;100.00
4167;BME280;2097;51.104;7.150;2023-02-13T06:45:39;100838.56;;;4.59;100.00
4167;BME280;2097;51.104;7.150;2023-02-13T06:48:05;100785.47;;;4.28;100.00
4167;BME280;2097;51.104;7.150;2023-02-13T06:50:32;100828.28;;;4.56;100.00
4167;BME280;2097;51.104;7.150;2023-02-13T06:53:00;100839.41;;;4.52;100.00
4167;BME280;2097;51.104;7.150;2023-02-13T06:55:27;100835.16;;;4.49;100.00
4167;BME280;2097;51.104;7.150;2023-02-13T06:57:55;100833.44;;;4.48;100.00
4167;BME280;2097;51.104;7.150;2023-02-13T07:00:22;100830.00;;;4.45;100.00
4167;BME280;2097;51.104;7.150;2023-02-13T07:02:49;100840.28;;;4.45;100.00
4167;BME280;2097;51.104;7.150;2023-02-13T07:05:16;100637.38;;;3.18;100.00
4167;BME280;2097;51.104;7.150;2023-02-13T07:07:43;100837.72;;;4.39;100.00
4167;BME280;2097;51.104;7.150;2023-02-13T07:10:12;100838.56;;;4.38;100.00
4167;BME280;2097;51.104;7.150;2023-02-13T07:12:39;100846.28;;;4.38;100.00
4167;BME280;2097;51.104;7.150;2023-02-13T07:15:08;100839.44;;;4.39;100.00
4167;BME280;2097;51.104;7.150;2023-02-13T07:17:35;100699.88;;;3.60;100.00
4167;BME280;2097;51.104;7.150;2023-02-13T07:20:02;100805.19;;;4.23;100.00
4167;BME280;2097;51.104;7.150;2023-02-13T07:22:30;100784.63;;;4.07;100.00
4167;BME280;2097;51.104;7.150;2023-02-13T07:24:57;100841.13;;;4.41;100.00
4167;BME280;2097;51.104;7.150;2023-02-13T07:27:24;100838.56;;;4.41;100.00
4167;BME280;2097;51.104;7.150;2023-02-13T07:29:53;100694.75;;;3.63;100.00
4167;BME280;2097;51.104;7.150;2023-02-13T07:32:22;100840.28;;;4.48;100.00
4167;BME280;2097;51.104;7.150;2023-02-13T07:34:49;100586.94;;;3.07;100.00
4167;BME280;2097;51.104;7.150;2023-02-13T07:37:16;100839.41;;;4.56;100.00
4167;BME280;2097;51.104;7.150;2023-02-13T07:39:43;100841.97;;;4.62;100.00
4167;BME280;2097;51.104;7.150;2023-02-13T07:42:09;100711.84;;;3.85;100.00
4167;BME280;2097;51.104;7.150;2023-02-13T07:44:36;100773.50;;;4.24;100.00
4167;BME280;2097;51.104;7.150;2023-02-13T07:47:03;100847.13;;;4.73;100.00
4167;BME280;2097;51.104;7.150;2023-02-13T07:49:31;100801.75;;;4.44;100.00
4167;BME280;2097;51.104;7.150;2023-02-13T07:51:58;100843.66;;;4.84;100.00
4167;BME280;2097;51.104;7.150;2023-02-13T07:54:25;100846.22;;;4.89;100.00
4167;BME280;2097;51.104;7.150;2023-02-13T07:56:52;100840.22;;;4.93;100.00
4167;BME280;2097;51.104;7.150;2023-02-13T07:59:19;100847.06;;;4.97;100.00
4167;BME280;2097;51.104;7.150;2023-02-13T08:01:46;100410.06;;;2.51;100.00
4167;BME280;2097;51.104;7.150;2023-02-13T08:04:12;100844.47;;;5.09;100.00
4167;BME280;2097;51.104;7.150;2023-02-13T08:06:41;100852.16;;;5.15;100.00
4167;BME280;2097;51.104;7.150;2023-02-13T08:09:17;100855.56;;;5.20;100.00
4167;BME280;2097;51.104;7.150;2023-02-13T08:12:02;100848.69;;;5.26;100.00
4167;BME280;2097;51.104;7.150;2023-02-13T08:14:29;100623.66;;;4.00;100.00
4167;BME280;2097;51.104;7.150;2023-02-13T08:16:57;100853.78;;;5.38;100.00
4167;BME280;2097;51.104;7.150;2023-02-13T08:19:25;100854.63;;;5.46;100.00
4167;BME280;2097;51.104;7.150;2023-02-13T08:21:53;100785.28;;;5.10;100.00
4167;BME280;2097;51.104;7.150;2023-02-13T08:24:20;100851.13;;;5.55;100.00
4167;BME280;2097;51.104;7.150;2023-02-13T08:26:47;100685.16;;;4.61;100.00
4167;BME280;2097;51.104;7.150;2023-02-13T08:29:14;100858.81;;;5.66;100.00
4167;BME280;2097;51.104;7.150;2023-02-13T08:31:41;100736.44;;;4.97;100.00
4167;BME280;2097;51.104;7.150;2023-02-13T08:34:08;100856.22;;;5.78;100.00
4167;BME280;2097;51.104;7.150;2023-02-13T08:36:35;100859.59;;;5.85;100.00
4167;BME280;2097;51.104;7.150;2023-02-13T08:39:04;100858.72;;;5.92;100.00
4167;BME280;2097;51.104;7.150;2023-02-13T08:41:30;100855.25;;;5.94;100.00
4167;BME280;2097;51.104;7.150;2023-02-13T08:43:57;100854.38;;;6.00;100.00
4167;BME280;2097;51.104;7.150;2023-02-13T08:46:24;100795.25;;;5.68;100.00
4167;BME280;2097;51.104;7.150;2023-02-13T08:48:51;100790.94;;;5.79;100.00
4167;BME280;2097;51.104;7.150;2023-02-13T08:51:18;100857.69;;;6.18;100.00
4167;BME280;2097;51.104;7.150;2023-02-13T08:53:47;100860.16;;;6.27;100.00
4167;BME280;2097;51.104;7.150;2023-02-13T08:56:16;100853.25;;;6.34;100.00
4167;BME280;2097;51.104;7.150;2023-02-13T08:58:43;100864.38;;;6.40;100.00
4167;BME280;2097;51.104;7.150;2023-02-13T09:01:10;100868.63;;;6.47;100.00
4167;BME280;2097;51.104;7.150;2023-02-13T09:03:36;100862.53;;;6.54;100.00
4167;BME280;2097;51.104;7.150;2023-02-13T09:06:03;100867.66;;;6.59;100.00
4167;BME280;2097;51.104;7.150;2023-02-13T09:08:30;100870.19;;;6.63;100.00
4167;BME280;2097;51.104;7.150;2023-02-13T09:10:59;100845.31;;;6.55;100.00
4167;BME280;2097;51.104;7.150;2023-02-13T09:13:28;100483.84;;;4.47;100.00
4167;BME280;2097;51.104;7.150;2023-02-13T09:15:58;100864.06;;;6.76;100.00
4167;BME280;2097;51.104;7.150;2023-02-13T09:18:25;100858.84;;;6.82;100.00
4167;BME280;2097;51.104;7.150;2023-02-13T09:20:57;100856.19;;;6.91;100.00
4167;BME280;2097;51.104;7.150;2023-02-13T09:23:25;100852.63;;;6.98;100.00
4167;BME280;2097;51.104;7.150;2023-02-13T09:25:52;100862.03;;;7.06;100.00
4167;BME280;2097;51.104;7.150;2023-02-13T09:28:19;100860.22;;;7.11;100.00
4167;BME280;2097;51.104;7.150;2023-02-13T09:30:47;100864.50;;;7.15;100.00
4167;BME280;2097;51.104;7.150;2023-02-13T09:33:14;100861.00;;;7.21;100.00
4167;BME280;2097;51.104;7.150;2023-02-13T09:35:41;100864.41;;;7.26;100.00
4167;BME280;2097;51.104;7.150;2023-02-13T09:38:09;100862.59;;;7.31;100.00
4167;BME280;2097;51.104;7.150;2023-02-13T09:40:40;100865.09;;;7.37;100.00
4167;BME280;2097;51.104;7.150;2023-02-13T09:43:13;100858.13;;;7.45;100.00
4167;BME280;2097;51.104;7.150;2023-02-13T09:45:43;100862.31;;;7.55;100.00
4167;BME280;2097;51.104;7.150;2023-02-13T09:48:25;100807.56;;;7.27;100.00
4167;BME280;2097;51.104;7.150;2023-02-13T09:50:53;100871.59;;;7.68;100.00
4167;BME280;2097;51.104;7.150;2023-02-13T09:53:22;100865.53;;;7.72;100.00
4167;BME280;2097;51.104;7.150;2023-02-13T09:55:57;100866.31;;;7.77;100.00
4167;BME280;2097;51.104;7.150;2023-02-13T09:58:36;100868.75;;;7.87;100.00
4167;BME280;2097;51.104;7.150;2023-02-13T10:01:21;100861.78;;;7.93;100.00
4167;BME280;2097;51.104;7.150;2023-02-13T10:04:07;100714.06;;;7.04;100.00
4167;BME280;2097;51.104;7.150;2023-02-13T10:06:42;100834.34;;;7.84;100.00
4167;BME280;2097;51.104;7.150;2023-02-13T10:09:20;100791.59;;;7.62;100.00
4167;BME280;2097;51.104;7.150;2023-02-13T10:14:58;100806.63;;;7.94;100.00
4167;BME280;2097;51.104;7.150;2023-02-13T10:17:32;100872.41;;;8.34;100.00
4167;BME280;2097;51.104;7.150;2023-02-13T10:20:04;100869.72;;;8.40;100.00
4167;BME280;2097;51.104;7.150;2023-02-13T10:22:37;100838.00;;;8.29;100.00
4167;BME280;2097;51.104;7.150;2023-02-13T10:25:11;100867.72;;;8.56;100.00
4167;BME280;2097;51.104;7.150;2023-02-13T10:27:45;100861.56;;;8.63;100.00
4167;BME280;2097;51.104;7.150;2023-02-13T10:30:17;100820.56;;;8.40;100.00
4167;BME280;2097;51.104;7.150;2023-02-13T10:32:55;100600.34;;;7.12;100.00
4167;BME280;2097;51.104;7.150;2023-02-13T10:35:37;100870.75;;;8.82;100.00
4167;BME280;2097;51.104;7.150;2023-02-13T10:38:13;100874.97;;;8.87;100.00
4167;BME280;2097;51.104;7.150;2023-02-13T10:40:47;100868.84;;;8.91;100.00
4167;BME280;2097;51.104;7.150;2023-02-13T10:43:19;100868.78;;;8.94;100.00
4167;BME280;2097;51.104;7.150;2023-02-13T10:46:02;100868.75;;;8.97;100.00
4167;BME280;2097;51.104;7.150;2023-02-13T10:48:46;100881.59;;;9.03;100.00
4167;BME280;2097;51.104;7.150;2023-02-13T10:51:26;100879.66;;;9.12;100.00
4167;BME280;2097;51.104;7.150;2023-02-13T10:54:09;100868.28;;;9.21;100.00
4167;BME280;2097;51.104;7.150;2023-02-13T10:56:50;100612.56;;;7.57;100.00
4167;BME280;2097;51.104;7.150;2023-02-13T10:59:33;100864.47;;;9.40;100.00
4167;BME280;2097;51.104;7.150;2023-02-13T11:02:19;100820.00;;;9.17;100.00
4167;BME280;2097;51.104;7.150;2023-02-13T11:04:47;100832.59;;;9.33;100.00
4167;BME280;2097;51.104;7.150;2023-02-13T11:07:18;100849.50;;;9.52;100.00
4167;BME280;2097;51.104;7.150;2023-02-13T11:09:48;100848.53;;;9.58;100.00
4167;BME280;2097;51.104;7.150;2023-02-13T11:12:23;100718.72;;;8.88;100.00
4167;BME280;2097;51.104;7.150;2023-02-13T11:14:54;100694.66;;;8.83;100.00
4167;BME280;2097;51.104;7.150;2023-02-13T11:17:22;100844.63;;;9.78;100.00
4167;BME280;2097;51.104;7.150;2023-02-13T11:19:51;100783.09;;;9.47;100.00
4167;BME280;2097;51.104;7.150;2023-02-13T11:22:29;100804.09;;;9.74;99.93
4167;BME280;2097;51.104;7.150;2023-02-13T11:25:00;100757.03;;;9.53;99.99
4167;BME280;2097;51.104;7.150;2023-02-13T11:27:31;100826.91;;;9.97;100.00
4167;BME280;2097;51.104;7.150;2023-02-13T11:30:00;100794.28;;;9.87;99.92
4167;BME280;2097;51.104;7.150;2023-02-13T11:32:28;100770.25;;;9.80;99.11
4167;BME280;2097;51.104;7.150;2023-02-13T11:34:56;100834.16;;;10.20;98.70
4167;BME280;2097;51.104;7.150;2023-02-13T11:37:28;100826.38;;;10.20;98.39
4167;BME280;2097;51.104;7.150;2023-02-13T11:39:57;100825.38;;;10.26;97.84
4167;BME280;2097;51.104;7.150;2023-02-13T11:42:29;100730.56;;;9.77;97.30
4167;BME280;2097;51.104;7.150;2023-02-13T11:45:01;100789.41;;;10.13;97.35
4167;BME280;2097;51.104;7.150;2023-02-13T11:47:34;100766.25;;;10.04;97.26
4167;BME280;2097;51.104;7.150;2023-02-13T11:50:04;100825.88;;;10.41;97.21
4167;BME280;2097;51.104;7.150;2023-02-13T11:52:34;100807.50;;;10.49;96.83
4167;BME280;2097;51.104;7.150;2023-02-13T11:55:04;100825.47;;;10.56;96.39
4167;BME280;2097;51.104;7.150;2023-02-13T11:57:32;100663.09;;;9.80;95.87
4167;BME280;2097;51.104;7.150;2023-02-13T12:00:01;100680.72;;;10.01;95.28
4167;BME280;2097;51.104;7.150;2023-02-13T12:02:47;100583.47;;;9.50;95.06
4167;BME280;2097;51.104;7.150;2023-02-13T12:05:17;100803.28;;;10.77;94.96
4167;BME280;2097;51.104;7.150;2023-02-13T12:07:47;100802.25;;;10.84;95.02
4167;BME280;2097;51.104;7.150;2023-02-13T12:10:21;100794.44;;;10.85;93.58
4167;BME280;2097;51.104;7.150;2023-02-13T12:12:53;100417.94;;;8.73;93.65
4167;BME280;2097;51.104;7.150;2023-02-13T12:15:23;100764.25;;;10.80;93.27
4167;BME280;2097;51.104;7.150;2023-02-13T12:18:01;100793.00;;;11.04;92.67
4167;BME280;2097;51.104;7.150;2023-02-13T12:20:36;100790.09;;;11.15;92.28
4167;BME280;2097;51.104;7.150;2023-02-13T12:23:13;100791.72;;;11.20;92.03
4167;BME280;2097;51.104;7.150;2023-02-13T12:25:52;100783.91;;;11.20;91.78
4167;BME280;2097;51.104;7.150;2023-02-13T12:28:35;100778.63;;;11.23;91.39
4167;BME280;2097;51.104;7.150;2023-02-13T12:31:32;100775.81;;;11.29;91.77
4167;BME280;2097;51.104;7.150;2023-02-13T12:34:50;100771.16;;;11.40;90.78
4167;BME280;2097;51.104;7.150;2023-02-13T12:40:25;100775.88;;;11.58;90.04
4167;BME280;2097;51.104;7.150;2023-02-13T12:43:06;100709.34;;;11.22;89.52
4167;BME280;2097;51.104;7.150;2023-02-13T12:45:42;100767.78;;;11.67;89.50
4167;BME280;2097;51.104;7.150;2023-02-13T12:48:24;100771.09;;;11.72;89.06
4167;BME280;2097;51.104;7.150;2023-02-13T12:51:07;100764.69;;;11.83;88.40
4167;BME280;2097;51.104;7.150;2023-02-13T12:56:57;100756.53;;;11.94;87.11
4167;BME280;2097;51.104;7.150;2023-02-13T12:59:35;100558.16;;;10.82;86.92
4167;BME280;2097;51.104;7.150;2023-02-13T13:05:25;100697.06;;;11.82;85.71
4167;BME280;2097;51.104;7.150;2023-02-13T13:08:18;100739.22;;;12.19;85.52
4167;BME280;2097;51.104;7.150;2023-02-13T13:10:57;100740.81;;;12.23;85.31
4167;BME280;2097;51.104;7.150;2023-02-13T13:13:41;100738.94;;;12.26;84.81
4167;BME280;2097;51.104;7.150;2023-02-13T13:16:19;100740.50;;;12.32;84.03
4167;BME280;2097;51.104;7.150;2023-02-13T13:18:57;100737.75;;;12.36;84.18
4167;BME280;2097;51.104;7.150;2023-02-13T13:21:36;100732.22;;;12.45;83.73
4167;BME280;2097;51.104;7.150;2023-02-13T13:24:17;100736.34;;;12.52;82.71
4167;BME280;2097;51.104;7.150;2023-02-13T13:26:49;100479.31;;;11.09;82.95
4167;BME280;2097;51.104;7.150;2023-02-13T13:29:22;100729.06;;;12.60;83.19
4167;BME280;2097;51.104;7.150;2023-02-13T13:31:53;100722.75;;;12.67;82.79
4167;BME280;2097;51.104;7.150;2023-02-13T13:34:23;100605.41;;;12.00;82.42
4167;BME280;2097;51.104;7.150;2023-02-13T13:36:55;100671.63;;;12.40;82.15
4167;BME280;2097;51.104;7.150;2023-02-13T13:39:35;100725.94;;;12.75;82.00
4167;BME280;2097;51.104;7.150;2023-02-13T13:42:13;100722.31;;;12.79;82.23
4167;BME280;2097;51.104;7.150;2023-02-13T13:45:00;100730.84;;;12.84;81.26
4167;BME280;2097;51.104;7.150;2023-02-13T13:47:45;100572.63;;;11.94;80.82
4167;BME280;2097;51.104;7.150;2023-02-13T13:50:20;100509.44;;;11.66;80.62
4167;BME280;2097;51.104;7.150;2023-02-13T13:53:15;100727.53;;;13.03;80.31
4167;BME280;2097;51.104;7.150;2023-02-13T13:56:05;100726.56;;;13.06;79.63
4167;BME280;2097;51.104;7.150;2023-02-13T13:58:39;100549.72;;;12.04;79.71